Pahranagat National Wildlife Refuge, Nevada Weather observations

Data are for 10 minute period ending at time listed.
 Day   Time   Solar   Ave.   Ave.  Ave.  Vector  Max.   Baro.   Total    
  of    of     Rad.   Air    Rel.  Wind   Wind   Wind  Press.  Precip.   
Year   Day            Temp.  Hum.  Speed  Dir.   Gust                    
2014   (PST)  Kw/m2    F      %     mph   deg.    mph    mb.     in.     
-------------------------------------------------------------------------
 108   14:50   0.33   73.4    17   14.5   146    21.2   897.7    0.00 
 108   15:00   0.42   73.7    17   14.7   146    23.4   897.6    0.00 
 108   15:10   0.59   74.8    15   13.9   148    20.7   897.6    0.00 
 108   15:20   0.63   75.9    15   13.5   149    21.3   897.4    0.00 
 108   15:30   0.58   76.0    15   13.1   149    20.5   897.3    0.00 
 108   15:40   0.50   75.5    14   15.7   141    22.5   897.2    0.00 
 108   15:50   0.48   74.7    14   14.6   151    23.5   897.2    0.00 
 108   16:00   0.33   74.0    14   13.7   153    20.3   897.2    0.00 
 108   16:10   0.42   74.2    13   13.1   145    20.1   897.3    0.00 
 108   16:20   0.25   73.6    13   12.1   145    19.3   897.3    0.00 
 108   16:30   0.19   72.7    14   11.6   149    19.5   897.3    0.00 
 108   16:40   0.16   72.5    13    9.8   144    14.9   897.4    0.00 
 108   16:50   0.13   72.1    14    9.2   146    14.0   897.4    0.00 
 108   17:00   0.11   71.7    14    9.1   146    13.3   897.4    0.00 
 108   17:10   0.08   71.2    14    8.9   144    13.0   897.5    0.00 
 108   17:20   0.07   70.8    14    8.0   149    13.3   897.5    0.00 
 108   17:30   0.06   70.3    14    7.9   145    12.5   897.5    0.00 
 108   17:40   0.05   69.7    15    6.6   145    10.4   897.6    0.00 
 108   17:50   0.04   69.3    16    6.5   143    11.0   897.6    0.00 
 108   18:00   0.03   69.2    16    7.0   145    10.4   897.7    0.00 
 108   18:10   0.02   68.6    18    6.7   143    10.3   897.8    0.00 
 108   18:20   0.01   68.1    19    6.4   141    12.6   897.9    0.00 
 108   18:30   0.00   68.4    19    8.2   146    15.3   898.0    0.00 
 108   18:40   0.00   68.4    20    8.2   152    12.1   898.1    0.00 
 108   18:50   0.00   68.4    21    8.4   158    12.0   898.3    0.00 
 108   19:00   0.00   67.8    22    6.5   156     9.9   898.4    0.00 
 108   19:10   0.00   67.3    23    7.1   161    10.8   898.6    0.00 
 108   19:20   0.00   67.0    22    6.7   149    12.8   898.8    0.00 
 108   19:30   0.00   65.2    24    5.3   133     7.5   898.9    0.00 
 108   19:40   0.00   65.6    23    5.0   114     7.0   899.0    0.00 
 108   19:50   0.00   65.0    23    5.5   115     7.1   899.1    0.00 
 108   20:00   0.00   64.2    24    4.9   130     6.1   899.3    0.00 
 108   20:10   0.00   62.6    26    4.3   131     5.4   899.3    0.00 
 108   20:20   0.00   62.1    29    2.4   155     4.2   899.4    0.00 
 108   20:30   0.00   60.4    31    2.1    63     3.6   899.4    0.00 
 108   20:40   0.00   57.8    33    3.1   326     4.0   899.6    0.00 
 108   20:50   0.00   59.4    30    2.5    24     3.8   899.6    0.00 
 108   21:00   0.00   61.8    26    2.2    23     2.9   899.7    0.00 
 108   21:10   0.00   58.9    30    1.5     9     2.8   899.6    0.00 
 108   21:20   0.00   53.7    42    2.4   302     3.8   899.6    0.00 
 108   21:30   0.00   50.6    46    4.5   323     5.5   899.6    0.00 
 108   21:40   0.00   47.8    51    3.3   330     5.0   899.7    0.00 
 108   21:50   0.00   47.8    51    1.9   287     4.7   899.7    0.00 
 108   22:00   0.00   49.5    48    3.3   334     4.5   899.6    0.00 
 108   22:10   0.00   49.4    47    2.0   342     3.6   899.6    0.00 
 108   22:20   0.00   48.9    49    1.3   314     2.2   899.7    0.00 
 108   22:30   0.00   48.9    49    0.8   295     2.2   899.7    0.00 
 108   22:40   0.00   49.4    48    1.1    14     2.6   899.6    0.00 
 108   22:50   0.00   50.8    43    0.5   350     2.0   899.6    0.00 
 108   23:00   0.00   50.8    44    2.3   332     4.0   899.7    0.00 
 108   23:10   0.00   48.8    51    2.6   321     3.9   899.8    0.00 
 108   23:20   0.00   48.7    53    1.6   215     3.9   899.8    0.00 
 108   23:30   0.00   49.4    56    2.4   238     3.8   899.9    0.00 
 108   23:40   0.00   49.7    52    3.3   343     4.4   899.9    0.00 
 108   23:50   0.00   49.9    52    1.7   309     3.5   899.9    0.00 
 109    0:00   0.00   49.0    56    1.2   270     2.9   899.9    0.00 
 109    0:10   0.00   49.7    53    3.0   311     3.9   899.9    0.00 
 109    0:20   0.00   51.5    47    3.3   298     4.4   899.9    0.00 
 109    0:30   0.00   52.7    40    2.1   300     2.6   899.9    0.00 
 109    0:40   0.00   52.8    41    1.6   316     2.9   899.9    0.00 
 109    0:50   0.00   51.3    45    1.8    22     2.6   899.9    0.00 
 109    1:00   0.00   50.3    47    2.3    10     3.7   899.9    0.00 
 109    1:10   0.00   49.6    49    1.2   352     3.9   900.0    0.00 
 109    1:20   0.00   50.6    46    1.5    10     2.9   900.0    0.00 
 109    1:30   0.00   50.0    50    1.2   303     2.8   900.1    0.00 
 109    1:40   0.00   47.5    61    2.6   300     3.9   900.1    0.00 
 109    1:50   0.00   47.4    58    1.7     8     3.2   900.1    0.00 
 109    2:00   0.00   48.5    56    1.8   334     3.9   900.2    0.00 
 109    2:10   0.00   47.6    60    3.4   350     4.4   900.2    0.00 
 109    2:20   0.00   47.6    61    3.5   326     4.8   900.3    0.00 
 109    2:30   0.00   46.2    64    3.2   339     5.4   900.5    0.00 
 109    2:40   0.00   48.6    56    3.9     3     5.8   900.6    0.00 
 109    2:50   0.00   48.6    53    3.6   342     4.6   900.5    0.00 
 109    3:00   0.00   46.5    59    3.3   335     5.6   900.6    0.00 
 109    3:10   0.00   46.7    58    2.9   347     4.6   900.7    0.00 
 109    3:20   0.00   46.0    59    2.0   300     3.7   900.7    0.00 
 109    3:30   0.00   42.4    67    2.2   327     4.4   900.7    0.00 
 109    3:40   0.00   41.0    70    4.1   335     5.8   900.7    0.00 
 109    3:50   0.00   41.8    70    3.3   352     5.5   900.7    0.00 
 109    4:00   0.00   44.0    66    4.9   334     6.8   900.7    0.00 
 109    4:10   0.00   45.8    63    4.5   345     6.5   900.7    0.00 
 109    4:20   0.00   43.9    66    3.2   303     5.1   900.9    0.00 
 109    4:30   0.00   41.6    71    2.1   335     4.7   901.0    0.00 
 109    4:40   0.00   42.9    67    2.7   327     5.3   901.0    0.00 
 109    4:50   0.00   42.3    68    3.0   331     4.3   901.1    0.00 
 109    5:00   0.00   41.5    71    2.9   318     5.0   901.3    0.00 
 109    5:10   0.01   40.8    73    1.9   314     4.2   901.3    0.00 
 109    5:20   0.01   40.8    74    2.4   324     3.4   901.4    0.00 
 109    5:30   0.02   41.5    72    2.7   330     4.4   901.6    0.00 
 109    5:40   0.05   42.4    71    2.1   326     3.6   901.7    0.00 
 109    5:50   0.09   44.3    68    1.3   298     2.3   901.8    0.00 
 109    6:00   0.12   47.0    64    0.6   268     1.7   901.9    0.00 
 109    6:10   0.14   50.0    59    0.2   141     1.3   902.1    0.00 
 109    6:20   0.18   52.6    55    0.2   187     1.5   902.2    0.00 
 109    6:30   0.21   54.9    51    0.2   307     1.9   902.3    0.00 
 109    6:40   0.24   56.4    47    3.6   334     5.3   902.4    0.00 
 109    6:50   0.28   57.8    45    3.3   342     4.5   902.4    0.00 
 109    7:00   0.28   59.8    44    3.5   335     5.6   902.5    0.00 
 109    7:10   0.32   60.6    42    3.9   341     5.6   902.6    0.00 
 109    7:20   0.37   61.9    41    3.4   351     4.7   902.7    0.00 
 109    7:30   0.41   63.7    39    2.0     7     4.5   902.7    0.00 
 109    7:40   0.44   66.4    35    1.0    74     3.7   902.7    0.00 
 109    7:50   0.47   67.2    34    2.4   132     5.8   902.6    0.00 
 109    8:00   0.51   67.4    34    5.1   151     9.6   902.5    0.00 
 109    8:10   0.54   67.9    33    6.9   145    11.2   902.5    0.00 
 109    8:20   0.57   68.5    32    7.6   143    13.9   902.5    0.00 
 109    8:30   0.60   69.3    31    8.8   143    15.1   902.5    0.00 
 109    8:40   0.63   69.0    30    9.1   136    14.5   902.4    0.00 
 109    8:50   0.66   70.1    29    7.9   138    13.7   902.5    0.00 
 109    9:00   0.68   70.7    28    7.3   145    12.6   902.5    0.00 
 109    9:10   0.71   71.1    27    8.2   130    13.8   902.5    0.00 
 109    9:20   0.73   71.0    27    8.5   138    14.6   902.5    0.00 
 109    9:30   0.76   71.6    27    6.6   147    12.4   902.5    0.00 
 109    9:40   0.78   72.2    26    7.8   140    12.6   902.5    0.00 
 109    9:50   0.80   73.1    26    7.1   160    14.2   902.4    0.00 
 109   10:00   0.82   72.9    26    7.5   142    15.1   902.3    0.00 
 109   10:10   0.83   72.9    25    6.8   122    12.6   902.2    0.00 
 109   10:20   0.85   73.7    25    8.1   145    16.6   902.1    0.00 
 109   10:30   0.86   74.2    24    7.3   153    13.4   902.0    0.00 
 109   10:40   0.88   74.8    24    7.4   144    13.4   901.9    0.00 
 109   10:50   0.89   75.0    23    6.8   123    13.2   901.8    0.00 
 109   11:00   0.89   75.4    22    7.5   131    13.1   901.6    0.00 
 109   11:10   0.91   76.0    22    6.4   144    12.5   901.5    0.00 
 109   11:20   0.91   76.5    22    7.0   140    13.0   901.4    0.00 
 109   11:30   0.91   76.6    22    6.2   141    13.4   901.4    0.00 
 109   11:40   0.87   76.1    22    6.6   122    14.5   901.1    0.00 
 109   11:50   0.86   76.5    21    4.6   131    10.7   901.0    0.00 
 109   12:00   0.82   76.7    20    7.1   129    13.2   900.9    0.00 
 109   12:10   0.87   77.1    20    6.3   138    12.9   900.7    0.00 
 109   12:20   0.88   78.1    20    5.5   144    12.2   900.6    0.00 
 109   12:30   0.88   77.9    20    5.9   191    15.6   900.6    0.00 
 109   12:40   0.90   78.1    20    7.9   114    14.3   900.5    0.00 
 109   12:50   0.80   78.3    20    5.7   159    12.0   900.3    0.00 
 109   13:00   0.77   78.2    20    5.9   123    12.4   900.2    0.00 
 109   13:10   0.75   78.4    20    5.8   133    15.6   900.2    0.00 
 109   13:20   0.76   79.3    18    8.0   170    13.7   900.0    0.00 
 109   13:30   0.76   79.8    19    6.2   160    14.1   899.9    0.00 
 109   13:40   0.73   80.2    17    6.7   193    16.3   899.8    0.00 
 109   13:50   0.68   80.9    17    5.3   182     9.6   899.7    0.00 
 109   14:00   0.50   79.5    16    3.5   221     8.6   899.6    0.00 
 109   14:10   0.76   80.5    16    6.0   172    13.5   899.5    0.00 
 109   14:20   0.76   81.8    16    5.9   173    13.2   899.4    0.00 
 109   14:30   0.73   81.8    16    4.8   172    10.4   899.3    0.00 
 109   14:40   0.70   81.6    15    6.4   197    11.2   899.3    0.00 

Return to Pahranagat N. Wildlife Refuge graphs page.


Western Regional Climate Center,wrcc@dri.edu